createdAt,value
2022-12-07T00:00:08.187Z,94817.59
2022-12-07T00:02:34.659Z,94820.13
2022-12-07T00:05:01.259Z,94820.97
2022-12-07T00:07:28.078Z,94815.31
2022-12-07T00:09:54.488Z,94822.66
2022-12-07T00:12:20.991Z,94814.72
2022-12-07T00:14:49.720Z,94808.94
2022-12-07T00:17:18.542Z,94811.53
2022-12-07T00:19:45.242Z,94801.97
2022-12-07T00:22:11.652Z,94794.50
2022-12-07T00:24:43.346Z,94792.06
2022-12-07T00:27:09.954Z,94795.13
2022-12-07T00:29:36.331Z,94791.56
2022-12-07T00:32:03.043Z,94793.94
2022-12-07T00:34:29.494Z,94798.19
2022-12-07T00:36:55.879Z,94791.19
2022-12-07T00:39:22.336Z,94795.63
2022-12-07T00:41:48.771Z,94793.53
2022-12-07T00:44:15.635Z,94792.00
2022-12-07T00:46:42.682Z,94794.84
2022-12-07T00:49:09.409Z,94796.91
2022-12-07T00:51:35.997Z,94792.88
2022-12-07T00:54:02.495Z,94800.19
2022-12-07T00:56:28.993Z,94804.06
2022-12-07T00:58:56.447Z,94796.84
2022-12-07T01:01:23.008Z,94797.28
2022-12-07T01:03:49.675Z,94787.47
2022-12-07T01:06:18.316Z,94788.88
2022-12-07T01:08:44.862Z,94791.56
2022-12-07T01:11:11.559Z,94793.94
2022-12-07T01:13:40.326Z,94799.00
2022-12-07T01:16:06.777Z,94799.28
2022-12-07T01:18:33.179Z,94793.38
2022-12-07T01:20:59.650Z,94792.41
2022-12-07T01:23:26.065Z,94790.50
2022-12-07T01:25:52.492Z,94788.88
2022-12-07T01:28:20.901Z,94793.81
2022-12-07T01:30:47.410Z,94797.09
2022-12-07T01:33:16.267Z,94791.91
2022-12-07T01:35:42.638Z,94792.16
2022-12-07T01:38:11.186Z,94794.88
2022-12-07T01:40:37.525Z,94786.13
2022-12-07T01:43:06.254Z,94793.81
2022-12-07T01:45:32.976Z,94797.47
2022-12-07T01:47:59.847Z,94793.47
2022-12-07T01:50:28.059Z,94797.88
2022-12-07T01:52:54.552Z,94798.44
2022-12-07T01:55:21.033Z,94796.53
2022-12-07T01:57:47.780Z,94802.69
2022-12-07T02:00:14.907Z,94796.28
2022-12-07T02:02:41.388Z,94787.56
2022-12-07T02:05:07.758Z,94797.53
2022-12-07T02:07:34.138Z,94797.69
2022-12-07T02:10:00.788Z,94799.72
2022-12-07T02:12:28.511Z,94790.97
2022-12-07T02:14:55.250Z,94789.09
2022-12-07T02:17:21.684Z,94790.63
2022-12-07T02:19:49.082Z,94787.19
2022-12-07T02:22:17.549Z,94781.50
2022-12-07T02:24:44.162Z,94779.59
2022-12-07T02:27:10.554Z,94786.22
2022-12-07T02:29:37.141Z,94790.09
2022-12-07T02:32:03.594Z,94780.94
2022-12-07T02:34:32.492Z,94780.72
2022-12-07T02:37:01.351Z,94783.88
2022-12-07T02:39:27.709Z,94782.13
2022-12-07T02:41:54.276Z,94780.91
2022-12-07T02:44:20.676Z,94788.03
2022-12-07T02:46:47.056Z,94790.75
2022-12-07T02:49:13.650Z,94793.94
2022-12-07T02:51:40.279Z,94791.56
2022-12-07T02:54:06.729Z,94789.09
2022-12-07T02:56:33.210Z,94797.47
2022-12-07T02:58:59.550Z,94797.38
2022-12-07T03:01:26.009Z,94797.25
2022-12-07T03:03:52.619Z,94793.44
2022-12-07T03:06:19.241Z,94794.50
2022-12-07T03:08:45.784Z,94792.75
2022-12-07T03:11:18.953Z,94792.59
2022-12-07T03:13:48.305Z,94797.56
2022-12-07T03:16:15.468Z,94796.59
2022-12-07T03:18:41.942Z,94787.97
2022-12-07T03:21:08.355Z,94789.63
2022-12-07T03:23:34.712Z,94791.25
2022-12-07T03:26:01.223Z,94790.34
2022-12-07T03:28:27.733Z,94772.81
2022-12-07T03:30:54.115Z,94778.72
2022-12-07T03:33:20.651Z,94775.41
2022-12-07T03:35:47.036Z,94770.19
2022-12-07T03:38:13.420Z,94767.59
2022-12-07T03:40:39.813Z,94763.09
2022-12-07T03:43:06.404Z,94764.84
2022-12-07T03:45:35.679Z,94756.91
2022-12-07T03:48:02.226Z,94764.28
2022-12-07T03:50:28.619Z,94764.78
2022-12-07T03:52:55.285Z,94761.72
2022-12-07T03:55:22.094Z,94763.63
2022-12-07T03:57:48.613Z,94766.81
2022-12-07T04:00:16.031Z,94760.22
2022-12-07T04:02:42.953Z,94756.50
2022-12-07T04:05:10.420Z,94762.13
2022-12-07T04:07:37.389Z,94764.97
2022-12-07T04:10:04.115Z,94763.63
2022-12-07T04:12:30.622Z,94763.19
2022-12-07T04:14:57.922Z,94758.69
2022-12-07T04:17:24.551Z,94763.63
2022-12-07T04:19:50.907Z,94757.34
2022-12-07T04:22:17.240Z,94758.88
2022-12-07T04:24:44.053Z,94754.94
2022-12-07T04:27:10.830Z,94751.97
2022-12-07T04:29:37.208Z,94759.50
2022-12-07T04:32:03.727Z,94761.91
2022-12-07T04:34:30.229Z,94764.16
2022-12-07T04:36:56.810Z,94757.41
2022-12-07T04:39:23.266Z,94759.91
2022-12-07T04:41:49.767Z,94753.34
2022-12-07T04:44:16.546Z,94759.97
2022-12-07T04:46:42.960Z,94757.09
2022-12-07T04:49:09.566Z,94759.47
2022-12-07T04:51:35.989Z,94757.00
2022-12-07T04:54:03.915Z,94755.19
2022-12-07T04:56:30.286Z,94749.97
2022-12-07T04:58:56.826Z,94751.66
2022-12-07T05:01:23.306Z,94767.13
2022-12-07T05:03:49.734Z,94760.16
2022-12-07T05:06:16.175Z,94758.25
2022-12-07T05:08:44.961Z,94758.13
2022-12-07T05:11:11.447Z,94757.97
2022-12-07T05:13:37.849Z,94754.69
2022-12-07T05:16:04.654Z,94762.44
2022-12-07T05:18:33.385Z,94763.78
2022-12-07T05:20:59.862Z,94762.63
2022-12-07T05:23:26.254Z,94752.69
2022-12-07T05:25:52.807Z,94762.72
2022-12-07T05:28:19.940Z,94758.78
2022-12-07T05:30:46.510Z,94758.28
2022-12-07T05:33:13.955Z,94755.88
2022-12-07T05:35:40.463Z,94754.53
2022-12-07T05:38:06.899Z,94750.16
2022-12-07T05:40:35.645Z,94751.81
2022-12-07T05:43:04.955Z,94749.09
2022-12-07T05:45:31.657Z,94740.88
2022-12-07T05:47:58.694Z,94743.94
2022-12-07T05:50:25.146Z,94744.53
2022-12-07T05:52:52.150Z,94741.91
2022-12-07T05:55:19.002Z,94743.00
2022-12-07T05:57:45.419Z,94746.44
2022-12-07T06:00:11.790Z,94744.66
2022-12-07T06:02:38.942Z,94740.16
2022-12-07T06:05:05.616Z,94736.00
2022-12-07T06:07:32.050Z,94734.09
2022-12-07T06:09:58.627Z,94739.56
2022-12-07T06:12:25.193Z,94733.47
2022-12-07T06:14:51.710Z,94730.97
2022-12-07T06:17:18.372Z,94738.69
2022-12-07T06:19:45.923Z,94730.97
2022-12-07T06:22:12.309Z,94717.84
2022-12-07T06:24:38.690Z,94727.50
2022-12-07T06:27:05.096Z,94730.81
2022-12-07T06:29:32.471Z,94733.97
2022-12-07T06:31:58.990Z,94732.88
2022-12-07T06:34:25.395Z,94723.31
2022-12-07T06:36:51.779Z,94727.66
2022-12-07T06:39:18.115Z,94723.00
2022-12-07T06:41:44.497Z,94724.63
2022-12-07T06:44:10.961Z,94731.47
2022-12-07T06:46:37.301Z,94730.53
2022-12-07T06:49:11.339Z,94730.69
2022-12-07T06:51:37.716Z,94729.00
2022-12-07T06:54:04.088Z,94727.81
2022-12-07T06:56:30.450Z,94724.84
2022-12-07T06:58:56.826Z,94732.66
2022-12-07T07:01:24.170Z,94736.88
2022-12-07T07:03:50.968Z,94739.13
2022-12-07T07:06:17.295Z,94735.38
2022-12-07T07:08:43.681Z,94737.38
2022-12-07T07:11:13.270Z,94734.41
2022-12-07T07:13:39.764Z,94741.66
2022-12-07T07:16:06.147Z,94741.81
2022-12-07T07:18:32.716Z,94738.63
2022-12-07T07:20:59.106Z,94737.28
2022-12-07T07:23:25.903Z,94738.09
2022-12-07T07:25:52.417Z,94734.09
2022-12-07T07:28:19.012Z,94738.69
2022-12-07T07:30:45.484Z,94739.88
2022-12-07T07:33:12.037Z,94745.19
2022-12-07T07:35:38.417Z,94745.66
2022-12-07T07:38:04.755Z,94750.09
2022-12-07T07:40:31.083Z,94757.16
2022-12-07T07:42:57.515Z,94756.66
2022-12-07T07:45:23.905Z,94752.28
2022-12-07T07:47:50.351Z,94754.50
2022-12-07T07:50:16.691Z,94754.69
2022-12-07T07:52:43.072Z,94748.97
2022-12-07T07:55:09.522Z,94743.25
2022-12-07T07:57:36.000Z,94748.78
2022-12-07T08:00:07.990Z,94749.22
2022-12-07T08:02:34.414Z,94750.09
2022-12-07T08:05:00.867Z,94754.81
2022-12-07T08:07:27.388Z,94761.88
2022-12-07T08:09:54.039Z,94755.25
2022-12-07T08:12:20.466Z,94751.50
2022-12-07T08:14:47.009Z,94750.94
2022-12-07T08:17:14.146Z,94746.59
2022-12-07T08:19:40.527Z,94743.69
2022-12-07T08:22:06.867Z,94743.38
2022-12-07T08:24:33.326Z,94747.44
2022-12-07T08:27:00.038Z,94746.63
2022-12-07T08:29:26.936Z,94745.78
2022-12-07T08:31:53.302Z,94749.66
2022-12-07T08:34:19.640Z,94754.25
2022-12-07T08:36:45.982Z,94750.16
2022-12-07T08:41:58.799Z,94749.81
2022-12-07T08:44:25.483Z,94749.69
2022-12-07T08:46:51.961Z,94748.53
2022-12-07T08:49:18.413Z,94758.47
2022-12-07T08:51:47.176Z,94750.66
2022-12-07T08:54:13.790Z,94747.13
2022-12-07T08:56:40.422Z,94754.16
2022-12-07T08:59:09.122Z,94750.31
2022-12-07T09:01:35.537Z,94748.94
2022-12-07T09:04:03.347Z,94744.84
2022-12-07T09:06:29.837Z,94752.53
2022-12-07T09:08:56.283Z,94751.16
2022-12-07T09:11:28.321Z,94753.38
2022-12-07T09:13:55.195Z,94754.59
2022-12-07T09:16:21.713Z,94756.69
2022-12-07T09:18:48.230Z,94756.00
2022-12-07T09:21:16.617Z,94758.59
2022-12-07T09:23:43.090Z,94756.28
2022-12-07T09:26:10.987Z,94761.06
2022-12-07T09:28:37.608Z,94756.69
2022-12-07T09:33:50.483Z,94753.53
2022-12-07T09:36:19.305Z,94755.75
2022-12-07T09:38:45.669Z,94761.72
2022-12-07T09:41:13.339Z,94750.69
2022-12-07T09:43:39.979Z,94759.66
2022-12-07T09:46:09.605Z,94756.06
2022-12-07T09:48:37.060Z,94753.91
2022-12-07T09:51:03.407Z,94753.22
2022-12-07T09:53:29.788Z,94750.63
2022-12-07T09:55:56.168Z,94755.00
2022-12-07T09:58:22.705Z,94751.47
2022-12-07T10:00:49.031Z,94750.38
2022-12-07T10:03:15.522Z,94752.72
2022-12-07T10:05:41.883Z,94748.75
2022-12-07T10:08:08.544Z,94745.44
2022-12-07T10:10:38.430Z,94738.97
2022-12-07T10:13:06.168Z,94735.56
2022-12-07T10:15:33.536Z,94737.47
2022-12-07T10:18:00.078Z,94734.84
2022-12-07T10:20:26.629Z,94737.47
2022-12-07T10:22:53.018Z,94735.13
2022-12-07T10:25:19.397Z,94730.19
2022-12-07T10:27:47.941Z,94727.28
2022-12-07T10:30:14.292Z,94729.47
2022-12-07T10:32:40.626Z,94718.50
2022-12-07T10:35:07.610Z,94718.75
2022-12-07T10:37:34.147Z,94718.22
2022-12-07T10:40:03.013Z,94716.56
2022-12-07T10:42:31.649Z,94709.13
2022-12-07T10:44:58.083Z,94708.88
2022-12-07T10:47:24.981Z,94706.81
2022-12-07T10:49:51.386Z,94706.09
2022-12-07T10:52:17.904Z,94705.81
2022-12-07T10:54:44.634Z,94698.91
2022-12-07T10:57:11.330Z,94696.00
2022-12-07T10:59:40.056Z,94691.44
2022-12-07T11:02:06.653Z,94693.94
2022-12-07T11:04:33.047Z,94685.84
2022-12-07T11:06:59.754Z,94693.19
2022-12-07T11:09:51.930Z,94689.47
2022-12-07T11:12:12.700Z,94685.16
2022-12-07T11:14:39.109Z,94678.00
2022-12-07T11:17:06.396Z,94673.47
2022-12-07T11:19:32.883Z,94671.97
2022-12-07T11:21:59.306Z,94676.34
2022-12-07T11:24:25.784Z,94666.69
2022-12-07T11:26:52.155Z,94663.69
2022-12-07T11:29:18.495Z,94665.47
2022-12-07T11:31:45.971Z,94659.41
2022-12-07T11:34:12.411Z,94654.84
2022-12-07T11:36:39.259Z,94655.22
2022-12-07T11:39:05.616Z,94656.59
2022-12-07T11:41:32.194Z,94647.22
2022-12-07T11:43:58.869Z,94651.78
2022-12-07T11:46:25.497Z,94644.59
2022-12-07T11:48:52.052Z,94643.72
2022-12-07T11:51:18.646Z,94643.81
2022-12-07T11:53:45.259Z,94636.75
2022-12-07T11:56:11.878Z,94634.31
2022-12-07T11:58:45.640Z,94638.81
2022-12-07T12:01:12.021Z,94634.78
2022-12-07T12:03:38.442Z,94626.19
2022-12-07T12:06:05.340Z,94620.66
2022-12-07T12:11:18.250Z,94619.13
2022-12-07T12:16:31.381Z,94615.25
2022-12-07T12:18:57.881Z,94611.19
2022-12-07T12:21:24.293Z,94607.88
2022-12-07T12:23:50.789Z,94599.59
2022-12-07T12:26:19.765Z,94599.28
2022-12-07T12:28:50.202Z,94602.25
2022-12-07T12:31:16.979Z,94604.97
2022-12-07T12:33:44.055Z,94596.66
2022-12-07T12:36:10.640Z,94587.66
2022-12-07T12:38:37.139Z,94585.03
2022-12-07T12:41:04.517Z,94591.72
2022-12-07T12:43:33.403Z,94582.09
2022-12-07T12:46:02.100Z,94584.75
2022-12-07T12:48:28.961Z,94584.72
2022-12-07T12:50:55.443Z,94587.53
2022-12-07T12:53:21.905Z,94589.13
2022-12-07T12:55:48.259Z,94578.16
2022-12-07T12:58:15.031Z,94585.34
2022-12-07T13:00:41.731Z,94582.00
2022-12-07T13:03:13.062Z,94578.44
2022-12-07T13:05:39.986Z,94580.28
2022-12-07T13:08:06.376Z,94581.03
2022-12-07T13:10:36.226Z,94572.44
2022-12-07T13:13:03.022Z,94570.78
2022-12-07T13:15:29.407Z,94568.38
2022-12-07T13:17:55.789Z,94573.50
2022-12-07T13:20:22.983Z,94568.69
2022-12-07T13:22:49.672Z,94569.34
2022-12-07T13:25:17.018Z,94555.41
2022-12-07T13:27:43.923Z,94559.66
2022-12-07T13:30:10.440Z,94555.09
2022-12-07T13:32:37.025Z,94544.84
2022-12-07T13:35:04.122Z,94547.41
2022-12-07T13:37:37.922Z,94546.47
2022-12-07T13:40:04.749Z,94537.25
2022-12-07T13:42:31.134Z,94538.72
2022-12-07T13:44:57.498Z,94532.75
2022-12-07T13:47:24.078Z,94538.91
2022-12-07T13:49:53.870Z,94538.94
2022-12-07T13:52:20.595Z,94543.81
2022-12-07T13:54:47.034Z,94546.50
2022-12-07T13:57:13.417Z,94548.31
2022-12-07T13:59:39.800Z,94533.06
2022-12-07T14:02:06.217Z,94543.38
2022-12-07T14:04:32.662Z,94546.09
2022-12-07T14:06:58.986Z,94537.06
2022-12-07T14:09:25.363Z,94540.72
2022-12-07T14:11:51.951Z,94543.47
2022-12-07T14:14:18.336Z,94540.41
2022-12-07T14:16:45.082Z,94548.25
2022-12-07T14:19:11.473Z,94539.09
2022-12-07T14:21:37.972Z,94531.06
2022-12-07T14:24:04.313Z,94538.22
2022-12-07T14:26:38.073Z,94538.16
2022-12-07T14:29:04.463Z,94532.22
2022-12-07T14:31:31.204Z,94536.34
2022-12-07T14:33:57.768Z,94531.31
2022-12-07T14:36:24.386Z,94536.22
2022-12-07T14:38:50.755Z,94536.63
2022-12-07T14:41:17.453Z,94542.22
2022-12-07T14:44:00.011Z,94535.22
2022-12-07T14:46:30.603Z,94540.03
2022-12-07T14:54:30.243Z,94546.19
2022-12-07T14:56:56.587Z,94548.28
2022-12-07T14:59:23.141Z,94542.78
2022-12-07T15:01:49.498Z,94543.81
2022-12-07T15:04:16.209Z,94538.00
2022-12-07T15:06:43.768Z,94534.97
2022-12-07T15:09:10.168Z,94530.59
2022-12-07T15:11:40.272Z,94528.59
2022-12-07T15:14:11.042Z,94536.66
2022-12-07T15:17:06.680Z,94529.50
2022-12-07T15:19:28.357Z,94530.06
2022-12-07T15:21:55.869Z,94531.50
2022-12-07T15:24:22.260Z,94529.16
2022-12-07T15:26:48.657Z,94532.47
2022-12-07T15:29:21.032Z,94525.56
2022-12-07T15:31:58.068Z,94529.38
2022-12-07T15:34:24.963Z,94527.25
2022-12-07T15:36:51.344Z,94519.53
2022-12-07T15:39:18.216Z,94519.03
2022-12-07T15:41:44.606Z,94517.00
2022-12-07T15:44:11.238Z,94516.31
2022-12-07T15:46:37.850Z,94530.75
2022-12-07T15:49:04.416Z,94526.47
2022-12-07T15:51:30.968Z,94524.25
2022-12-07T15:53:57.572Z,94526.56
2022-12-07T15:56:24.507Z,94525.59
2022-12-07T15:58:51.052Z,94524.25
2022-12-07T16:01:18.510Z,94523.69
2022-12-07T16:03:44.896Z,94525.59
2022-12-07T16:06:11.273Z,94518.44
2022-12-07T16:08:38.139Z,94519.25
2022-12-07T16:11:05.888Z,94522.84
2022-12-07T16:13:32.250Z,94527.75
2022-12-07T16:15:59.013Z,94512.31
2022-12-07T16:18:25.522Z,94520.00
2022-12-07T16:20:51.915Z,94517.03
2022-12-07T16:23:18.400Z,94517.31
2022-12-07T16:25:44.721Z,94508.88
2022-12-07T16:28:11.214Z,94503.13
2022-12-07T16:30:37.600Z,94507.31
2022-12-07T16:33:11.360Z,94500.53
2022-12-07T16:35:37.738Z,94497.75
2022-12-07T16:38:04.120Z,94500.25
2022-12-07T16:40:30.518Z,94503.53
2022-12-07T16:42:57.186Z,94503.91
2022-12-07T16:45:25.188Z,94505.84
2022-12-07T16:47:51.926Z,94509.56
2022-12-07T16:50:18.411Z,94500.53
2022-12-07T16:52:46.610Z,94503.88
2022-12-07T16:55:13.048Z,94502.88
2022-12-07T16:57:41.438Z,94502.75
2022-12-07T17:00:07.912Z,94503.34
2022-12-07T17:02:34.251Z,94506.63
2022-12-07T17:05:03.376Z,94508.09
2022-12-07T17:07:29.984Z,94502.88
2022-12-07T17:09:57.148Z,94502.50
2022-12-07T17:12:23.696Z,94504.69
2022-12-07T17:14:50.380Z,94498.63
2022-12-07T17:17:16.830Z,94506.66
2022-12-07T17:19:43.270Z,94499.91
2022-12-07T17:22:11.909Z,94501.25
2022-12-07T17:24:38.592Z,94497.53
2022-12-07T17:27:04.986Z,94489.69
2022-12-07T17:29:31.377Z,94487.75
2022-12-07T17:31:58.246Z,94488.03
2022-12-07T17:34:24.623Z,94487.50
2022-12-07T17:36:54.079Z,94486.41
2022-12-07T17:39:20.583Z,94479.25
2022-12-07T17:41:48.208Z,94486.25
2022-12-07T17:44:14.594Z,94482.66
2022-12-07T17:46:42.313Z,94484.75
2022-12-07T17:49:08.859Z,94483.13
2022-12-07T17:51:35.197Z,94485.16
2022-12-07T17:54:01.535Z,94478.16
2022-12-07T17:56:30.804Z,94482.72
2022-12-07T17:58:57.185Z,94480.97
2022-12-07T18:01:24.256Z,94478.22
2022-12-07T18:03:50.905Z,94477.91
2022-12-07T18:06:17.464Z,94474.19
2022-12-07T18:08:48.138Z,94467.03
2022-12-07T18:11:14.483Z,94462.91
2022-12-07T18:13:40.902Z,94459.25
2022-12-07T18:16:07.842Z,94458.00
2022-12-07T18:18:34.507Z,94459.63
2022-12-07T18:21:03.321Z,94458.66
2022-12-07T18:23:29.937Z,94467.63
2022-12-07T18:25:56.316Z,94461.34
2022-12-07T18:28:22.967Z,94457.75
2022-12-07T18:31:14.206Z,94461.03
2022-12-07T18:33:35.623Z,94460.88
2022-12-07T18:36:01.961Z,94465.16
2022-12-07T18:38:28.365Z,94462.97
2022-12-07T18:40:54.720Z,94461.34
2022-12-07T18:43:21.097Z,94460.66
2022-12-07T18:45:51.308Z,94463.28
2022-12-07T18:48:22.792Z,94458.47
2022-12-07T18:50:49.182Z,94454.09
2022-12-07T18:53:16.051Z,94457.66
2022-12-07T18:55:42.501Z,94455.47
2022-12-07T18:58:10.085Z,94449.81
2022-12-07T19:00:36.767Z,94453.09
2022-12-07T19:03:03.460Z,94453.94
2022-12-07T19:05:30.847Z,94459.69
2022-12-07T19:07:57.254Z,94457.75
2022-12-07T19:10:23.886Z,94454.19
2022-12-07T19:12:50.394Z,94443.72
2022-12-07T19:15:17.015Z,94442.75
2022-12-07T19:17:43.386Z,94447.81
2022-12-07T19:20:11.786Z,94446.03
2022-12-07T19:22:38.163Z,94445.34
2022-12-07T19:25:04.981Z,94452.91
2022-12-07T19:27:31.682Z,94446.34
2022-12-07T19:29:58.638Z,94442.59
2022-12-07T19:32:25.192Z,94432.97
2022-12-07T19:34:51.651Z,94439.03
2022-12-07T19:37:18.983Z,94433.94
2022-12-07T19:39:45.337Z,94424.59
2022-12-07T19:42:11.888Z,94426.53
2022-12-07T19:44:38.365Z,94422.00
2022-12-07T19:47:05.606Z,94425.97
2022-12-07T19:49:33.144Z,94420.88
2022-12-07T19:51:59.530Z,94422.81
2022-12-07T19:54:26.930Z,94422.50
2022-12-07T19:56:53.407Z,94426.78
2022-12-07T19:59:20.775Z,94425.28
2022-12-07T20:01:48.231Z,94419.22
2022-12-07T20:04:14.940Z,94420.22
2022-12-07T20:06:43.415Z,94415.78
2022-12-07T20:09:09.875Z,94419.53
2022-12-07T20:11:36.254Z,94410.72
2022-12-07T20:14:02.678Z,94410.56
2022-12-07T20:16:33.125Z,94411.38
2022-12-07T20:18:59.624Z,94400.78
2022-12-07T20:21:26.654Z,94399.84
2022-12-07T20:23:53.217Z,94400.78
2022-12-07T20:26:19.824Z,94391.16
2022-12-07T20:28:46.315Z,94400.66
2022-12-07T20:31:13.124Z,94382.88
2022-12-07T20:33:40.589Z,94384.81
2022-12-07T20:36:06.939Z,94382.38
2022-12-07T20:38:34.071Z,94374.91
2022-12-07T20:41:00.630Z,94374.38
2022-12-07T20:43:26.974Z,94377.16
2022-12-07T20:45:53.632Z,94385.25
2022-12-07T20:48:20.476Z,94378.31
2022-12-07T20:50:46.858Z,94380.94
2022-12-07T20:53:14.283Z,94385.47
2022-12-07T20:55:41.456Z,94384.34
2022-12-07T20:58:10.660Z,94380.25
2022-12-07T21:00:36.993Z,94375.63
2022-12-07T21:03:03.631Z,94373.53
2022-12-07T21:05:30.202Z,94376.13
2022-12-07T21:07:56.831Z,94369.81
2022-12-07T21:10:23.328Z,94370.47
2022-12-07T21:12:54.132Z,94377.66
2022-12-07T21:15:22.322Z,94382.88
2022-12-07T21:17:48.778Z,94378.44
2022-12-07T21:20:15.171Z,94372.13
2022-12-07T21:22:41.559Z,94379.66
2022-12-07T21:25:07.911Z,94364.00
2022-12-07T21:27:38.598Z,94378.75
2022-12-07T21:30:04.968Z,94375.03
2022-12-07T21:32:31.348Z,94376.66
2022-12-07T21:34:57.784Z,94371.16
2022-12-07T21:37:24.258Z,94374.72
2022-12-07T21:39:51.618Z,94385.03
2022-12-07T21:42:17.958Z,94381.44
2022-12-07T21:44:45.437Z,94379.66
2022-12-07T21:47:11.844Z,94377.72
2022-12-07T21:49:38.282Z,94375.78
2022-12-07T21:52:04.628Z,94370.56
2022-12-07T21:54:33.359Z,94369.59
2022-12-07T21:56:59.749Z,94379.88
2022-12-07T21:59:29.028Z,94379.88
2022-12-07T22:01:55.562Z,94375.78
2022-12-07T22:04:22.242Z,94370.56
2022-12-07T22:06:48.808Z,94373.31
2022-12-07T22:09:17.496Z,94370.69
2022-12-07T22:11:44.319Z,94365.47
2022-12-07T22:14:11.034Z,94367.97
2022-12-07T22:16:41.836Z,94364.34
2022-12-07T22:19:08.301Z,94369.59
2022-12-07T22:21:35.932Z,94370.56
2022-12-07T22:24:02.296Z,94370.56
2022-12-07T22:26:28.764Z,94379.34
2022-12-07T22:28:55.228Z,94374.97
2022-12-07T22:31:21.677Z,94372.50
2022-12-07T22:33:48.280Z,94365.78
2022-12-07T22:36:15.305Z,94361.50
2022-12-07T22:38:41.804Z,94359.88
2022-12-07T22:41:08.383Z,94360.03
2022-12-07T22:43:35.812Z,94361.66
2022-12-07T22:46:02.368Z,94366.97
2022-12-07T22:48:29.138Z,94370.53
2022-12-07T22:50:55.541Z,94359.94
2022-12-07T22:53:21.921Z,94360.91
2022-12-07T22:55:48.495Z,94366.13
2022-12-07T22:58:15.279Z,94368.06
2022-12-07T23:00:41.652Z,94359.13
2022-12-07T23:03:08.154Z,94350.28
2022-12-07T23:05:34.602Z,94346.88
2022-12-07T23:08:03.495Z,94351.13
2022-12-07T23:10:29.965Z,94346.88
2022-12-07T23:12:56.434Z,94352.09
2022-12-07T23:15:22.824Z,94353.06
2022-12-07T23:17:51.417Z,94347.00
2022-12-07T23:20:18.002Z,94341.94
2022-12-07T23:22:46.914Z,94336.56
2022-12-07T23:25:13.770Z,94333.94
2022-12-07T23:27:40.142Z,94342.63
2022-12-07T23:30:07.667Z,94344.56
2022-12-07T23:32:34.184Z,94342.78
2022-12-07T23:35:00.680Z,94344.72
2022-12-07T23:37:29.081Z,94344.56
2022-12-07T23:39:55.443Z,94345.66
2022-12-07T23:42:21.851Z,94336.34
2022-12-07T23:44:48.191Z,94335.53
2022-12-07T23:47:14.971Z,94337.22
2022-12-07T23:49:41.422Z,94340.94
2022-12-07T23:52:07.980Z,94323.47
2022-12-07T23:54:34.558Z,94326.94
2022-12-07T23:57:02.101Z,94324.16
2022-12-07T23:59:31.690Z,94322.38
